createdAt,value
2023-04-20T00:02:38.618Z,9.00
2023-04-20T00:07:41.691Z,9.10
2023-04-20T00:12:43.496Z,9.00
2023-04-20T00:17:46.511Z,9.00
2023-04-20T00:22:48.379Z,9.00
2023-04-20T00:27:50.038Z,9.00
2023-04-20T00:32:51.881Z,8.90
2023-04-20T00:37:53.640Z,8.80
2023-04-20T00:42:55.483Z,8.90
2023-04-20T00:47:57.232Z,8.90
2023-04-20T00:52:59.116Z,8.90
2023-04-20T00:58:01.521Z,8.90
2023-04-20T01:03:03.639Z,8.70
2023-04-20T01:08:05.532Z,8.80
2023-04-20T01:13:07.218Z,8.50
2023-04-20T01:18:09.656Z,8.60
2023-04-20T01:23:11.404Z,8.70
2023-04-20T01:28:14.398Z,8.70
2023-04-20T01:33:16.122Z,8.70
2023-04-20T01:38:19.262Z,8.70
2023-04-20T01:43:21.814Z,8.60
2023-04-20T01:48:23.506Z,8.30
2023-04-20T01:53:28.024Z,8.10
2023-04-20T01:58:29.784Z,8.30
2023-04-20T02:03:31.531Z,8.20
2023-04-20T02:08:33.912Z,8.10
2023-04-20T02:13:35.617Z,8.10
2023-04-20T02:18:37.470Z,7.90
2023-04-20T02:23:39.176Z,8.00
2023-04-20T02:28:41.029Z,8.00
2023-04-20T02:33:42.731Z,8.10
2023-04-20T02:38:44.520Z,8.10
2023-04-20T02:43:46.237Z,8.10
2023-04-20T02:48:48.022Z,8.10
2023-04-20T02:53:49.982Z,8.10
2023-04-20T02:58:52.262Z,8.00
2023-04-20T03:03:54.147Z,8.00
2023-04-20T03:08:56.484Z,7.90
2023-04-20T03:13:58.170Z,7.90
2023-04-20T03:18:59.810Z,8.00
2023-04-20T03:24:01.630Z,7.90
2023-04-20T03:29:03.317Z,8.00
2023-04-20T03:34:05.001Z,8.00
2023-04-20T03:39:07.404Z,7.70
2023-04-20T03:44:09.153Z,7.30
2023-04-20T03:49:10.841Z,7.40
2023-04-20T03:54:12.530Z,7.60
2023-04-20T03:59:14.268Z,7.60
2023-04-20T04:04:16.191Z,7.70
2023-04-20T04:09:18.354Z,7.80
2023-04-20T04:14:20.527Z,7.80
2023-04-20T04:19:22.303Z,7.80
2023-04-20T04:24:23.967Z,7.80
2023-04-20T04:29:25.915Z,7.70
2023-04-20T04:34:29.788Z,7.70
2023-04-20T04:39:31.466Z,7.70
2023-04-20T04:44:33.906Z,7.70
2023-04-20T04:49:40.683Z,7.70
2023-04-20T04:54:42.444Z,7.70
2023-04-20T04:59:44.093Z,7.70
2023-04-20T05:04:46.904Z,7.70
2023-04-20T05:09:48.652Z,7.90
2023-04-20T05:14:50.347Z,7.90
2023-04-20T05:19:52.011Z,7.90
2023-04-20T05:24:53.695Z,7.90
2023-04-20T05:29:55.413Z,8.00
2023-04-20T05:34:58.231Z,7.90
2023-04-20T05:40:00.348Z,8.00
2023-04-20T05:45:02.040Z,7.80
2023-04-20T05:50:04.375Z,7.80
2023-04-20T05:55:06.418Z,7.80
2023-04-20T06:00:12.787Z,7.70
2023-04-20T06:05:14.737Z,7.80
2023-04-20T06:10:16.437Z,7.80
2023-04-20T06:15:18.189Z,7.90
2023-04-20T06:20:20.726Z,8.00
2023-04-20T06:25:22.494Z,8.00
2023-04-20T06:30:24.194Z,8.10
2023-04-20T06:35:26.464Z,8.10
2023-04-20T06:40:29.142Z,8.20
2023-04-20T06:45:32.836Z,8.10
2023-04-20T06:50:35.833Z,8.10
2023-04-20T06:55:37.498Z,8.20
2023-04-20T07:00:39.243Z,8.10
2023-04-20T07:05:41.011Z,8.20
2023-04-20T07:10:42.801Z,8.20
2023-04-20T07:15:46.068Z,8.40
2023-04-20T07:20:47.735Z,8.30
2023-04-20T07:25:49.520Z,8.40
2023-04-20T07:30:51.333Z,8.40
2023-04-20T07:35:53.023Z,8.30
2023-04-20T07:40:54.679Z,8.50
2023-04-20T07:45:56.380Z,8.70
2023-04-20T07:50:58.056Z,8.90
2023-04-20T07:55:59.744Z,9.20
2023-04-20T08:01:01.431Z,9.30
2023-04-20T08:06:03.548Z,9.50
2023-04-20T08:11:08.011Z,9.50
2023-04-20T08:16:09.817Z,9.50
2023-04-20T08:21:11.635Z,9.50
2023-04-20T08:26:16.283Z,9.40
2023-04-20T08:31:18.015Z,9.40
2023-04-20T08:36:19.793Z,9.10
2023-04-20T08:41:22.542Z,9.30
2023-04-20T08:46:25.761Z,9.30
2023-04-20T08:51:27.847Z,9.40
2023-04-20T08:56:37.864Z,9.50
2023-04-20T09:01:41.578Z,9.60
2023-04-20T09:06:51.452Z,9.50
2023-04-20T09:12:07.875Z,9.30
2023-04-20T09:17:14.132Z,9.20
2023-04-20T09:22:15.800Z,9.30
2023-04-20T09:27:19.101Z,9.60
2023-04-20T09:32:25.179Z,9.50
2023-04-20T09:37:27.066Z,9.80
2023-04-20T09:42:29.062Z,10.50
2023-04-20T09:47:30.998Z,10.80
2023-04-20T09:52:34.838Z,11.20
2023-04-20T09:57:37.824Z,11.50
2023-04-20T10:02:40.343Z,12.00
2023-04-20T10:07:42.608Z,12.30
2023-04-20T10:12:59.582Z,12.90
2023-04-20T10:18:01.457Z,12.70
2023-04-20T10:23:11.367Z,12.70
2023-04-20T10:28:13.227Z,12.50
2023-04-20T10:33:14.964Z,12.10
2023-04-20T10:38:35.166Z,12.20
2023-04-20T10:43:41.975Z,13.00
2023-04-20T10:48:57.807Z,13.40
2023-04-20T10:54:05.533Z,13.60
2023-04-20T10:59:08.634Z,13.60
2023-04-20T11:04:17.820Z,14.00
2023-04-20T11:09:23.468Z,14.10
2023-04-20T11:14:25.175Z,13.50
2023-04-20T11:19:31.946Z,12.90
2023-04-20T11:24:34.564Z,12.60
2023-04-20T11:29:40.091Z,13.50
2023-04-20T11:34:42.422Z,13.30
2023-04-20T11:39:44.188Z,13.60
2023-04-20T11:44:45.995Z,12.60
2023-04-20T11:49:47.708Z,11.70
2023-04-20T11:54:49.481Z,11.90
2023-04-20T11:59:51.571Z,12.10
2023-04-20T12:04:53.362Z,11.70
2023-04-20T12:09:55.126Z,12.10
2023-04-20T12:14:56.842Z,13.30
2023-04-20T12:19:58.581Z,14.00
2023-04-20T12:25:00.565Z,14.30
2023-04-20T12:30:02.354Z,14.10
2023-04-20T12:35:04.451Z,13.90
2023-04-20T12:40:07.299Z,14.30
2023-04-20T12:45:09.213Z,14.40
2023-04-20T12:50:11.387Z,14.40
2023-04-20T12:55:14.311Z,14.90
2023-04-20T13:00:16.499Z,16.00
2023-04-20T13:05:18.688Z,17.50
2023-04-20T13:10:20.382Z,17.60
2023-04-20T13:15:32.051Z,17.20
2023-04-20T13:20:40.685Z,15.50
2023-04-20T13:25:42.441Z,15.60
2023-04-20T13:30:44.263Z,14.70
2023-04-20T13:35:46.060Z,14.70
2023-04-20T13:40:48.316Z,14.30
2023-04-20T13:45:50.079Z,13.70
2023-04-20T13:50:53.975Z,13.50
2023-04-20T13:55:55.749Z,14.10
2023-04-20T14:00:57.506Z,14.30
2023-04-20T14:05:59.367Z,14.20
2023-04-20T14:11:01.097Z,14.50
2023-04-20T14:16:09.310Z,14.30
2023-04-20T14:21:11.086Z,14.00
2023-04-20T14:26:12.801Z,14.00
2023-04-20T14:31:14.628Z,13.90
2023-04-20T14:36:16.327Z,13.20
2023-04-20T14:41:17.964Z,13.20
2023-04-20T14:46:19.692Z,12.70
2023-04-20T14:51:21.462Z,12.60
2023-04-20T14:56:23.458Z,12.60
2023-04-20T15:01:25.290Z,12.40
2023-04-20T15:06:27.076Z,12.60
2023-04-20T15:11:28.729Z,12.90
2023-04-20T15:16:30.558Z,12.80
2023-04-20T15:21:32.285Z,13.20
2023-04-20T15:26:33.979Z,13.20
2023-04-20T15:31:35.780Z,12.80
2023-04-20T15:36:37.443Z,12.70
2023-04-20T15:41:39.262Z,12.60
2023-04-20T15:46:41.119Z,12.90
2023-04-20T15:51:44.400Z,13.10
2023-04-20T15:56:46.217Z,13.30
2023-04-20T16:01:48.007Z,13.30
2023-04-20T16:06:50.459Z,13.50
2023-04-20T16:11:52.195Z,13.30
2023-04-20T16:16:53.935Z,13.00
2023-04-20T16:21:55.741Z,13.20
2023-04-20T16:27:00.766Z,13.30
2023-04-20T16:32:02.533Z,13.50
2023-04-20T16:37:04.190Z,13.20
2023-04-20T16:42:05.916Z,13.30
2023-04-20T16:47:08.101Z,13.00
2023-04-20T16:52:10.548Z,12.80
2023-04-20T16:57:12.275Z,12.60
2023-04-20T17:02:14.119Z,12.30
2023-04-20T17:07:16.044Z,12.30
2023-04-20T17:12:17.818Z,12.20
2023-04-20T17:17:19.618Z,12.20
2023-04-20T17:22:21.516Z,12.00
2023-04-20T17:27:23.213Z,11.80
2023-04-20T17:32:24.924Z,11.70
2023-04-20T17:37:26.977Z,11.40
2023-04-20T17:42:28.811Z,11.30
2023-04-20T17:47:32.548Z,11.20
2023-04-20T17:52:34.384Z,11.20
2023-04-20T17:57:36.144Z,11.10
2023-04-20T18:02:38.207Z,11.00
2023-04-20T18:07:39.987Z,11.00
2023-04-20T18:12:42.689Z,11.00
2023-04-20T18:17:44.471Z,10.90
2023-04-20T18:22:50.142Z,10.80
2023-04-20T18:27:51.885Z,10.70
2023-04-20T18:32:53.871Z,10.30
2023-04-20T18:37:55.638Z,10.10
2023-04-20T18:42:57.352Z,10.00
2023-04-20T18:47:59.138Z,9.80
2023-04-20T18:53:00.955Z,9.20
2023-04-20T18:58:02.684Z,9.00
2023-04-20T19:03:06.063Z,8.80
2023-04-20T19:08:07.952Z,8.50
2023-04-20T19:13:09.587Z,8.20
2023-04-20T19:18:11.583Z,8.10
2023-04-20T19:23:13.384Z,8.00
2023-04-20T19:28:15.524Z,7.90
2023-04-20T19:33:17.262Z,7.40
2023-04-20T19:38:20.158Z,7.00
2023-04-20T19:43:21.813Z,7.10
2023-04-20T19:48:23.692Z,6.80
2023-04-20T19:53:25.982Z,7.00
2023-04-20T19:58:27.706Z,7.10
2023-04-20T20:03:30.625Z,6.60
2023-04-20T20:08:32.569Z,6.40
2023-04-20T20:13:34.259Z,6.40
2023-04-20T20:18:36.927Z,6.40
2023-04-20T20:23:38.653Z,6.40
2023-04-20T20:28:40.451Z,6.40
2023-04-20T20:33:42.901Z,6.20
2023-04-20T20:38:45.296Z,6.00
2023-04-20T20:43:47.290Z,6.10
2023-04-20T20:48:49.066Z,6.20
2023-04-20T20:53:51.038Z,6.40
2023-04-20T20:58:54.251Z,6.40
2023-04-20T21:03:56.174Z,6.00
2023-04-20T21:08:58.003Z,5.60
2023-04-20T21:14:01.934Z,5.60
2023-04-20T21:19:03.878Z,5.60
2023-04-20T21:24:05.809Z,5.50
2023-04-20T21:29:07.630Z,5.60
2023-04-20T21:34:09.321Z,5.50
2023-04-20T21:39:11.083Z,5.50
2023-04-20T21:44:12.833Z,5.60
2023-04-20T21:49:14.714Z,5.30
2023-04-20T21:54:16.440Z,5.10
2023-04-20T21:59:18.268Z,5.00
2023-04-20T22:04:20.366Z,5.00
2023-04-20T22:09:23.077Z,4.90
2023-04-20T22:14:24.857Z,5.00
2023-04-20T22:19:26.809Z,5.10
2023-04-20T22:24:28.540Z,5.00
2023-04-20T22:29:30.222Z,5.10
2023-04-20T22:34:33.028Z,5.10
2023-04-20T22:39:35.030Z,5.30
2023-04-20T22:44:36.706Z,4.80
2023-04-20T22:49:38.385Z,4.70
2023-04-20T22:54:40.358Z,5.00
2023-04-20T22:59:42.146Z,5.20
2023-04-20T23:04:44.315Z,5.10
2023-04-20T23:09:45.987Z,4.90
2023-04-20T23:14:47.666Z,4.50
2023-04-20T23:19:49.607Z,4.50
2023-04-20T23:24:51.391Z,4.30
2023-04-20T23:29:53.054Z,4.50
2023-04-20T23:34:54.909Z,4.40
2023-04-20T23:39:56.583Z,4.50
2023-04-20T23:44:58.697Z,4.50
2023-04-20T23:50:00.503Z,4.50
2023-04-20T23:55:02.167Z,4.50
